This is the latest recevied weather packets stored in our database for station/object KB5SJ. If no packets are shown the sender has not sent any weather packets the latest 10 day(s).
| Time | Temp. | Humidity | Pressure | Rain* | Wind** | Luminosity | Snow |
|---|---|---|---|---|---|---|---|
| 1777610716 | 19.44° C | 96% | 1009.4 hPa | 0 mm | - | - | - |
| 1777605916 | 20° C | 95% | 1011.6 hPa | 0 mm | - | - | - |
| 1777603516 | 20.56° C | 95% | 1011.3 hPa | 0 mm | - | - | - |
| 1777601716 | 20.56° C | 94% | 1010.5 hPa | 0 mm | - | - | - |
| 1777598116 | 21.11° C | 93% | 1009.8 hPa | 0 mm | - | - | - |
| 1777595118 | 21.67° C | 92% | 1009.4 hPa | 0 mm | - | - | - |
| 1777594537 | 21.67° C | 92% | 1009.4 hPa | 0 mm | - | - | - |
| 1777592137 | 21.67° C | 92% | 1008.8 hPa | 0 mm | - | - | - |
| 1777586718 | 21.67° C | 92% | 1008.4 hPa | 0 mm | - | - | - |
| 1777584318 | 22.22° C | 91% | 1008.5 hPa | 0 mm | - | - | - |
| 1777583118 | 22.78° C | 91% | 1010 hPa | 0 mm | - | - | - |
| 1777582517 | 23.33° C | 90% | 1009.7 hPa | 0 mm | - | - | - |
| 1777578917 | 24.44° C | 88% | 1009.8 hPa | 0 mm | - | - | - |
| 1777578315 | 24.44° C | 89% | 1009.7 hPa | 0 mm | - | - | - |
| 1777574117 | 24.44° C | 93% | 1010.2 hPa | 0 mm | - | - | - |
| 1777571137 | 26.11° C | 91% | 1010 hPa | 0 mm | - | - | - |
| 1777565717 | 23.89° C | 96% | 1009.9 hPa | 0 mm | - | - | - |
| 1777563917 | 23.89° C | 96% | 1010.3 hPa | 0 mm | - | - | - |
| 1777563317 | 23.89° C | 96% | 1010.2 hPa | 0 mm | - | - | - |
| 1777558517 | 22.78° C | 99% | 1009.9 hPa | 0 mm | - | - | - |
| 1777555517 | 22.22° C | 99% | 1009.1 hPa | 0 mm | - | - | - |
| 1777554317 | 22.22° C | 99% | 1009.6 hPa | 0 mm | - | - | - |
| 1777553117 | 21.67° C | 98% | 1009.3 hPa | 0 mm | - | - | - |
| 1777551917 | 22.22° C | 98% | 1009.8 hPa | 0 mm | - | - | - |
| 1777550137 | 21.67° C | 98% | 1009.1 hPa | 0.25 mm | - | - | - |
* Rain latest hour (hover to see other rain measurements)
** Current wind speed in m/s (hover to see current wind gust speed)